Archival Weather

Eureka

Eureka, Canada (CWEU)

Report from: Tuesday, May 21, 2024 10:00 AM CDT
Current time: Saturday, June 22, 2024 4:33 AM CDT

Current weather – Weather history – Daily summaries
Weather forecast

Present weatherLight snow
Temperature-6.0°C (21.2°F)
Wind chill-10.2°C (13.6°F)
Dew point-9.0°C (15.8°F)
Winds 5 kts (2.6 m/s, 5.8 mph) Northeast (40°)
Visibility15 mi. (24.1 km)
Clouds Few clouds 1,500 ft. (457 m)
Ceiling: Broken clouds 2,400 ft. (732 m)
Overcast 2,800 ft. (853 m)
Altimeter30.23 in.Hg (1024 mB)
Relative humidity79 %
Density altitude-2,956 ft. (-901 m)
Sea-level pressure102.5 kPa (1025 mB, 30.27 in.Hg)
Flight conditions Marginal Visual Meteorological Conditions
Raw dataCWEU 211500Z 04005KT 15SM -SN FEW015 BKN024 OVC028 M06/M09 A3023 RMK SC1SC7SC1 SC TR SLP251
An error has occurred. This application may no longer respond until reloaded. Reload 🗙